createdAt,value
2019-05-25T07:12:12.553Z,5.55
2019-05-25T07:14:42.479Z,6.25
2019-05-25T07:17:12.419Z,6.03
2019-05-25T07:19:42.437Z,5.70
2019-05-25T07:22:12.057Z,6.10
2019-05-25T07:24:41.995Z,6.65
2019-05-25T07:27:11.373Z,5.30
2019-05-25T07:29:40.160Z,6.47
2019-05-25T07:32:08.905Z,6.40
2019-05-25T07:34:39.012Z,6.20
2019-05-25T07:37:07.762Z,6.97
2019-05-25T07:39:36.426Z,6.45
2019-05-25T07:42:06.365Z,6.83
2019-05-25T07:44:35.697Z,6.83
2019-05-25T07:47:04.496Z,6.28
2019-05-25T07:49:35.191Z,6.50
2019-05-25T07:52:04.410Z,6.65
2019-05-25T07:54:34.733Z,6.75
2019-05-25T07:57:03.581Z,6.70
2019-05-25T07:59:32.368Z,6.65
2019-05-25T08:02:02.674Z,6.22
2019-05-25T08:04:31.657Z,6.87
2019-05-25T08:07:00.359Z,6.47
2019-05-25T08:09:30.938Z,6.35
2019-05-25T08:11:59.702Z,6.97
2019-05-25T08:14:29.666Z,5.92
2019-05-25T08:16:58.554Z,6.15
2019-05-25T08:19:28.856Z,5.97
2019-05-25T08:22:02.816Z,6.25
2019-05-25T08:24:31.677Z,6.58
2019-05-25T08:27:00.643Z,5.97
2019-05-25T08:29:30.897Z,5.97
2019-05-25T08:31:59.654Z,5.67
2019-05-25T08:34:30.681Z,5.95
2019-05-25T08:36:59.637Z,6.05
2019-05-25T08:39:28.654Z,4.65
2019-05-25T08:41:57.455Z,6.55
2019-05-25T08:44:26.235Z,4.97
2019-05-25T08:46:57.867Z,4.95
2019-05-25T08:49:26.984Z,4.42
2019-05-25T08:51:56.622Z,4.58
2019-05-25T08:54:25.477Z,3.70
2019-05-25T08:56:54.301Z,3.80
2019-05-25T08:59:23.232Z,3.77
2019-05-25T09:01:53.887Z,3.90
2019-05-25T09:04:25.519Z,4.17
2019-05-25T09:06:53.141Z,3.40
2019-05-25T09:09:22.367Z,4.15
2019-05-25T09:11:52.992Z,3.35
2019-05-25T09:14:21.929Z,3.45
2019-05-25T09:16:51.878Z,3.65
2019-05-25T09:19:20.621Z,3.22
2019-05-25T09:22:02.020Z,3.30
2019-05-25T09:24:19.855Z,3.45
2019-05-25T09:26:49.323Z,2.55
2019-05-25T09:29:19.156Z,3.70
2019-05-25T09:31:48.526Z,4.03
2019-05-25T09:34:17.263Z,3.70
2019-05-25T09:36:46.654Z,3.50
2019-05-25T09:39:17.225Z,3.27
2019-05-25T09:41:47.304Z,3.20
2019-05-25T09:44:16.795Z,3.30
2019-05-25T09:46:46.758Z,2.83
2019-05-25T09:49:17.181Z,2.67
2019-05-25T09:51:48.643Z,2.02
2019-05-25T09:54:16.319Z,2.33
2019-05-25T09:56:45.029Z,1.70
2019-05-25T09:59:19.969Z,1.82
2019-05-25T10:01:44.282Z,1.77
2019-05-25T10:04:14.254Z,1.60
2019-05-25T10:06:43.178Z,1.70
2019-05-25T10:09:12.183Z,1.45
2019-05-25T10:11:45.039Z,1.40
2019-05-25T10:14:13.826Z,1.22
2019-05-25T10:16:42.587Z,1.12
2019-05-25T10:19:13.215Z,1.20
2019-05-25T10:24:50.917Z,0.88
2019-05-25T10:31:01.304Z,0.95
2019-05-25T10:33:29.740Z,0.68
2019-05-25T10:35:59.490Z,0.90
2019-05-25T10:38:28.233Z,0.88
2019-05-25T10:40:58.650Z,1.22
2019-05-25T10:43:27.592Z,0.85
2019-05-25T10:45:56.370Z,1.02
2019-05-25T10:48:25.208Z,0.57
2019-05-25T10:50:54.260Z,0.88
2019-05-25T10:53:23.621Z,0.90
2019-05-25T10:55:53.427Z,0.78
2019-05-25T10:58:22.581Z,0.60
2019-05-25T11:00:53.383Z,0.78
2019-05-25T11:03:22.258Z,0.70
2019-05-25T11:05:51.059Z,0.50
2019-05-25T11:08:21.718Z,0.50
2019-05-25T11:10:50.623Z,0.90
2019-05-25T11:13:19.463Z,0.72
2019-05-25T11:15:52.675Z,1.05
2019-05-25T11:18:21.717Z,0.95
2019-05-25T11:20:52.413Z,1.40
2019-05-25T11:24:24.501Z,1.00
2019-05-25T11:26:48.842Z,0.85
2019-05-25T11:29:17.684Z,1.30
2019-05-25T11:31:55.534Z,0.88
2019-05-25T11:34:17.894Z,0.98
2019-05-25T11:36:48.577Z,1.15
2019-05-25T11:39:20.118Z,1.47
2019-05-25T11:41:49.005Z,0.78
2019-05-25T11:44:17.973Z,0.95
2019-05-25T11:46:46.687Z,0.98
2019-05-25T11:49:22.438Z,1.07
2019-05-25T11:51:45.954Z,1.00
2019-05-25T11:54:16.278Z,1.10
2019-05-25T11:56:46.679Z,1.15
2019-05-25T11:59:17.214Z,0.88
2019-05-25T12:01:46.052Z,0.85
2019-05-25T12:04:14.782Z,0.93
2019-05-25T12:06:44.041Z,0.90
2019-05-25T12:09:14.316Z,0.70
2019-05-25T12:11:46.156Z,0.95
2019-05-25T12:14:16.299Z,0.90
2019-05-25T12:16:47.574Z,1.12
2019-05-25T12:19:16.620Z,0.80
2019-05-25T12:21:46.298Z,0.90
2019-05-25T12:24:16.941Z,0.98
2019-05-25T12:26:46.702Z,0.90
2019-05-25T12:29:16.897Z,0.72
2019-05-25T12:31:45.706Z,1.27
2019-05-25T12:34:14.414Z,0.82
2019-05-25T12:39:31.600Z,1.10
2019-05-25T12:42:01.764Z,1.00
2019-05-25T12:44:34.474Z,0.85
2019-05-25T12:47:03.457Z,0.95
2019-05-25T12:49:49.383Z,0.82
2019-05-25T12:52:05.784Z,0.90
2019-05-25T12:54:37.992Z,1.00
2019-05-25T12:57:06.643Z,0.90
2019-05-25T12:59:36.169Z,0.93
2019-05-25T13:02:05.043Z,0.98
2019-05-25T13:04:34.721Z,1.10
2019-05-25T13:07:05.424Z,1.00
2019-05-25T13:09:34.214Z,0.78
2019-05-25T13:12:04.568Z,1.00
2019-05-25T13:14:33.265Z,1.10
2019-05-25T13:17:01.998Z,0.75
2019-05-25T13:19:32.196Z,0.82
2019-05-25T13:22:01.000Z,1.10
2019-05-25T13:24:30.215Z,0.70
2019-05-25T13:26:59.246Z,1.07
2019-05-25T13:29:28.015Z,1.10
2019-05-25T13:31:58.049Z,0.95
2019-05-25T13:34:26.820Z,1.00
2019-05-25T13:36:57.069Z,1.10
2019-05-25T13:39:25.872Z,1.47
2019-05-25T13:41:55.906Z,1.20
2019-05-25T13:44:24.646Z,1.07
2019-05-25T13:46:55.818Z,1.00
2019-05-25T13:49:26.461Z,1.30
2019-05-25T13:51:56.634Z,1.30
2019-05-25T13:54:30.344Z,1.27
2019-05-25T13:57:00.049Z,1.98
2019-05-25T13:59:30.141Z,1.10
2019-05-25T14:01:59.154Z,1.00
2019-05-25T14:04:35.695Z,1.77
2019-05-25T14:07:05.895Z,1.05
2019-05-25T14:09:34.637Z,1.10
2019-05-25T14:12:04.508Z,0.95
2019-05-25T14:14:33.288Z,1.00
2019-05-25T14:17:02.049Z,1.00
2019-05-25T14:19:31.010Z,0.80
2019-05-25T14:21:59.856Z,1.50
2019-05-25T14:24:30.005Z,0.98
2019-05-25T14:26:58.801Z,1.10
2019-05-25T14:29:27.549Z,1.20
2019-05-25T14:31:56.339Z,1.02
2019-05-25T14:34:25.937Z,1.10
2019-05-25T14:36:54.746Z,1.10
2019-05-25T14:39:23.466Z,1.05
2019-05-25T14:41:52.193Z,0.90
2019-05-25T14:44:21.008Z,1.05
2019-05-25T14:46:50.846Z,0.80
2019-05-25T14:49:19.643Z,1.02
2019-05-25T14:51:48.433Z,1.00
2019-05-25T14:54:18.066Z,1.40
2019-05-25T14:56:46.830Z,1.00
2019-05-25T14:59:16.115Z,0.80
2019-05-25T15:02:01.317Z,1.32
2019-05-25T15:04:18.453Z,1.10
2019-05-25T15:06:47.174Z,1.32
2019-05-25T15:09:17.584Z,1.25
2019-05-25T15:11:47.608Z,1.30
2019-05-25T15:14:16.366Z,1.32
2019-05-25T15:16:49.024Z,1.25
2019-05-25T15:19:18.469Z,1.00
2019-05-25T15:21:48.500Z,1.27
2019-05-25T15:24:17.870Z,1.30
2019-05-25T15:26:49.772Z,1.50
2019-05-25T15:29:18.522Z,1.12
2019-05-25T15:31:47.259Z,1.20
2019-05-25T15:34:16.537Z,1.50
2019-05-25T15:36:48.215Z,1.15
2019-05-25T15:39:20.799Z,1.12
2019-05-25T15:41:51.311Z,1.60
2019-05-25T15:44:20.458Z,1.30
2019-05-25T15:46:51.001Z,1.40
2019-05-25T15:49:21.043Z,1.05
2019-05-25T15:51:49.829Z,1.00
2019-05-25T15:54:18.781Z,1.10
2019-05-25T15:56:47.540Z,0.85
2019-05-25T15:59:16.721Z,1.30
2019-05-25T16:01:46.094Z,1.20
2019-05-25T16:04:23.918Z,1.20
2019-05-25T16:06:52.645Z,1.00
2019-05-25T16:09:21.403Z,1.30
2019-05-25T16:11:50.284Z,1.17
2019-05-25T16:14:19.293Z,1.02
2019-05-25T16:16:48.131Z,1.10
2019-05-25T16:19:17.184Z,1.07
2019-05-25T16:21:45.935Z,1.47
2019-05-25T16:24:14.633Z,1.20
2019-05-25T16:26:46.332Z,0.82
2019-05-25T16:29:15.373Z,1.67
2019-05-25T16:31:44.223Z,1.32
2019-05-25T16:34:14.442Z,1.00
2019-05-25T16:36:43.319Z,0.95
2019-05-25T16:39:12.044Z,1.10
2019-05-25T16:41:41.085Z,1.42
2019-05-25T16:44:10.441Z,0.90
2019-05-25T16:46:42.964Z,0.90
2019-05-25T16:49:11.793Z,0.93
2019-05-25T16:51:40.516Z,1.00
2019-05-25T16:54:09.262Z,0.95
2019-05-25T16:56:38.666Z,1.07
2019-05-25T16:59:07.493Z,0.93
2019-05-25T17:01:47.558Z,1.02
2019-05-25T17:04:06.785Z,0.75
2019-05-25T17:06:35.662Z,1.37
2019-05-25T17:09:07.322Z,0.88
2019-05-25T17:11:37.725Z,1.00
2019-05-25T17:14:08.486Z,0.98
2019-05-25T17:16:36.925Z,0.90
2019-05-25T17:19:07.583Z,1.07
2019-05-25T17:21:39.006Z,1.30
2019-05-25T17:24:08.908Z,1.25
2019-05-25T17:26:37.789Z,2.00
2019-05-25T17:29:08.901Z,1.90
2019-05-25T17:31:37.863Z,2.10
2019-05-25T17:34:06.670Z,2.08
2019-05-25T17:36:36.383Z,2.30
2019-05-25T17:39:07.368Z,1.90
2019-05-25T17:41:36.151Z,1.92
2019-05-25T17:44:05.773Z,2.00
2019-05-25T17:46:34.501Z,1.80
2019-05-25T17:49:03.622Z,3.20
2019-05-25T17:51:32.336Z,1.75
2019-05-25T17:54:01.145Z,1.67
2019-05-25T17:56:29.918Z,1.80
2019-05-25T17:58:58.824Z,1.47
2019-05-25T18:01:28.199Z,1.52
2019-05-25T18:04:06.434Z,1.80
2019-05-25T18:06:27.567Z,2.33
2019-05-25T18:08:56.337Z,2.70
2019-05-25T18:11:26.663Z,2.40
2019-05-25T18:13:55.774Z,2.50
2019-05-25T18:16:24.684Z,2.40
2019-05-25T18:18:54.404Z,3.30
2019-05-25T18:21:24.000Z,3.92
2019-05-25T18:24:17.833Z,4.60
2019-05-25T18:26:49.542Z,4.17
2019-05-25T18:29:18.213Z,3.67
2019-05-25T18:31:48.342Z,4.05
2019-05-25T18:34:21.939Z,4.78
2019-05-25T18:36:50.525Z,4.30
2019-05-25T18:39:19.318Z,4.03
2019-05-25T18:41:48.053Z,4.17
2019-05-25T18:44:18.706Z,5.55
2019-05-25T18:46:47.724Z,3.85
2019-05-25T18:49:16.997Z,3.67
2019-05-25T18:51:46.788Z,2.67
2019-05-25T18:54:17.561Z,3.20
2019-05-25T18:56:46.888Z,3.83
2019-05-25T18:59:15.684Z,4.60
2019-05-25T19:01:46.373Z,5.20
2019-05-25T19:04:15.929Z,5.03
2019-05-25T19:06:45.968Z,5.78
2019-05-25T19:09:15.291Z,5.95
2019-05-25T19:11:45.817Z,5.12
2019-05-25T19:14:14.642Z,3.30
2019-05-25T19:16:43.438Z,2.85
2019-05-25T19:19:13.272Z,2.62
2019-05-25T19:21:42.053Z,2.47
2019-05-25T19:24:12.703Z,2.90
2019-05-25T19:26:41.588Z,2.98
2019-05-25T19:29:10.771Z,3.12
2019-05-25T19:31:42.549Z,2.65
2019-05-25T19:34:12.947Z,2.80
2019-05-25T19:36:42.274Z,2.83
2019-05-25T19:39:12.232Z,2.55
2019-05-25T19:41:41.167Z,1.67
2019-05-25T19:44:09.983Z,1.92
2019-05-25T19:46:38.739Z,1.80
2019-05-25T19:49:08.825Z,1.45
2019-05-25T19:51:38.935Z,0.95
2019-05-25T19:54:07.963Z,1.07
2019-05-25T19:56:37.804Z,1.05
2019-05-25T19:59:06.738Z,0.98
2019-05-25T20:01:36.385Z,1.07
2019-05-25T20:04:05.239Z,0.75
2019-05-25T20:06:34.603Z,1.20
2019-05-25T20:09:03.496Z,0.98
2019-05-25T20:11:32.407Z,0.90
2019-05-25T20:14:02.403Z,1.07
2019-05-25T20:16:32.621Z,1.12
2019-05-25T20:19:02.824Z,1.12
2019-05-25T20:21:36.296Z,1.07
2019-05-25T20:24:05.045Z,0.95
2019-05-25T20:26:34.763Z,1.27
2019-05-25T20:29:03.477Z,1.00
2019-05-25T20:31:32.404Z,0.72
2019-05-25T20:34:01.367Z,0.80
2019-05-25T20:36:30.233Z,1.17
2019-05-25T20:38:59.008Z,0.80
2019-05-25T20:41:27.810Z,0.95
2019-05-25T20:43:56.657Z,0.93
2019-05-25T20:46:25.946Z,1.12
2019-05-25T20:48:54.785Z,1.25
2019-05-25T20:51:24.317Z,1.10
2019-05-25T20:53:54.290Z,1.05
2019-05-25T21:43:48.865Z,1.37
2019-05-25T21:46:18.551Z,1.20
2019-05-25T21:48:48.748Z,1.30
2019-05-25T21:51:17.414Z,1.40
